Bassetts Creek, Alabama
Current Conditions -  °F | °C
As of 3:56 PM on Friday 28 Nov 2014 (Local Time) from KMOB Reporting Station
Clear Clear  
Wind Chill: 58°   Ceiling: Unl
Heat Index: 58°   Visibility: 10mi
Dew Point: 28°   Wind: 0mph
Humidity: 32%   Direction: NA
Pressure: 30.3"   Gusts: NA
Location:  31.3942°N, 88.065°W
Report Text: KMOB 282156Z 00000KT 10SM CLR 14/M02 A3030 RMK AO2 SLP261 T01441022
Loading
Personal Weather Stations






























Interactive Weather Map New forecast layout! Learn more

10-Day Weather Forecast

Advertisements
Track Severe Weather on mobile